createdAt,value
2022-09-29T00:00:33.459Z,96991.00
2022-09-29T00:03:01.642Z,96999.00
2022-09-29T00:05:30.577Z,97008.00
2022-09-29T00:07:58.537Z,97007.00
2022-09-29T00:10:26.469Z,97010.00
2022-09-29T00:12:55.853Z,96984.00
2022-09-29T00:15:23.831Z,97016.00
2022-09-29T00:18:12.721Z,96955.00
2022-09-29T00:20:40.019Z,97001.00
2022-09-29T00:23:08.026Z,97009.00
2022-09-29T00:25:36.071Z,96967.00
2022-09-29T00:28:05.402Z,96975.00
2022-09-29T00:30:33.401Z,97029.00
2022-09-29T00:33:01.328Z,96990.00
2022-09-29T00:35:29.372Z,96962.00
2022-09-29T00:37:57.403Z,96980.00
2022-09-29T00:40:25.440Z,96962.00
2022-09-29T00:42:53.965Z,96998.00
2022-09-29T00:45:24.328Z,96949.00
2022-09-29T00:48:01.320Z,96982.00
2022-09-29T00:50:40.695Z,97014.00
2022-09-29T00:53:12.163Z,97016.00
2022-09-29T00:55:42.570Z,97009.00
2022-09-29T00:58:13.832Z,97005.00
2022-09-29T01:00:43.883Z,96991.00
2022-09-29T01:03:14.240Z,97020.00
2022-09-29T01:05:44.654Z,97023.00
2022-09-29T01:08:14.197Z,96980.00
2022-09-29T01:10:42.415Z,97014.00
2022-09-29T01:13:10.382Z,96992.00
2022-09-29T01:15:38.358Z,97008.00
2022-09-29T01:18:08.133Z,97007.00
2022-09-29T01:20:38.698Z,96998.00
2022-09-29T01:23:27.790Z,97027.00
2022-09-29T01:26:28.501Z,97014.00
2022-09-29T01:29:09.404Z,97019.00
2022-09-29T01:31:40.274Z,96997.00
2022-09-29T01:34:16.005Z,97009.00
2022-09-29T01:36:49.570Z,97014.00
2022-09-29T01:39:21.055Z,97005.00
2022-09-29T01:41:51.368Z,97021.00
2022-09-29T01:44:23.145Z,97011.00
2022-09-29T01:46:54.004Z,97000.00
2022-09-29T01:49:22.548Z,97026.00
2022-09-29T01:51:52.663Z,97016.00
2022-09-29T01:54:22.083Z,96980.00
2022-09-29T01:56:52.240Z,96997.00
2022-09-29T01:59:22.052Z,97021.00
2022-09-29T02:01:52.142Z,97022.00
2022-09-29T02:04:21.804Z,96980.00
2022-09-29T02:06:53.405Z,97021.00
2022-09-29T02:09:23.571Z,96930.00
2022-09-29T02:11:51.861Z,96993.00
2022-09-29T02:14:20.808Z,97008.00
2022-09-29T02:16:49.646Z,97003.00
2022-09-29T02:19:20.477Z,96993.00
2022-09-29T02:21:48.513Z,96989.00
2022-09-29T02:24:16.609Z,96967.00
2022-09-29T02:26:45.272Z,96973.00
2022-09-29T02:29:13.313Z,97014.00
2022-09-29T02:31:41.786Z,96948.00
2022-09-29T02:34:10.266Z,97024.00
2022-09-29T02:36:43.285Z,96983.00
2022-09-29T02:39:14.835Z,97024.00
2022-09-29T02:41:47.303Z,97006.00
2022-09-29T02:44:31.442Z,97045.00
2022-09-29T02:47:08.424Z,97009.00
2022-09-29T02:49:44.856Z,97023.00
2022-09-29T02:52:18.755Z,97042.00
2022-09-29T02:54:55.904Z,97007.00
2022-09-29T02:57:27.651Z,97032.00
2022-09-29T03:00:00.357Z,97009.00
2022-09-29T03:02:28.647Z,97022.00
2022-09-29T03:04:56.594Z,97023.00
2022-09-29T03:07:26.148Z,97019.00
2022-09-29T03:09:54.167Z,96978.00
2022-09-29T03:12:22.166Z,97033.00
2022-09-29T03:14:50.175Z,97030.00
2022-09-29T03:17:18.634Z,97019.00
2022-09-29T03:19:46.712Z,97016.00
2022-09-29T03:22:14.767Z,96981.00
2022-09-29T03:24:44.504Z,97032.00
2022-09-29T03:27:27.782Z,97021.00
2022-09-29T03:29:55.802Z,97032.00
2022-09-29T03:32:23.824Z,97002.00
2022-09-29T03:34:51.793Z,97027.00
2022-09-29T03:37:19.800Z,97032.00
2022-09-29T03:39:49.204Z,97028.00
2022-09-29T03:42:17.295Z,97036.00
2022-09-29T03:44:45.317Z,97019.00
2022-09-29T03:47:13.356Z,97036.00
2022-09-29T03:49:41.459Z,97033.00
2022-09-29T03:52:09.469Z,97018.00
2022-09-29T03:54:37.495Z,97000.00
2022-09-29T03:57:06.889Z,97054.00
2022-09-29T03:59:35.026Z,96993.00
2022-09-29T04:02:03.540Z,97017.00
2022-09-29T04:04:31.649Z,97045.00
2022-09-29T04:06:59.742Z,97021.00
2022-09-29T04:09:27.814Z,97031.00
2022-09-29T04:11:55.944Z,96988.00
2022-09-29T04:14:25.361Z,97029.00
2022-09-29T04:16:53.431Z,97037.00
2022-09-29T04:19:21.455Z,97041.00
2022-09-29T04:21:49.549Z,96984.00
2022-09-29T04:24:17.578Z,97037.00
2022-09-29T04:26:45.928Z,96999.00
2022-09-29T04:29:14.186Z,96980.00
2022-09-29T04:31:44.105Z,97022.00
2022-09-29T04:34:12.150Z,97053.00
2022-09-29T04:36:40.186Z,97022.00
2022-09-29T04:39:08.427Z,97024.00
2022-09-29T04:41:39.644Z,97042.00
2022-09-29T04:44:07.751Z,96981.00
2022-09-29T04:46:35.778Z,97028.00
2022-09-29T04:49:05.362Z,97035.00
2022-09-29T04:51:33.367Z,96992.00
2022-09-29T04:54:01.406Z,97013.00
2022-09-29T04:56:31.626Z,97012.00
2022-09-29T04:58:59.742Z,97046.00
2022-09-29T05:01:27.985Z,97033.00
2022-09-29T05:03:55.998Z,97032.00
2022-09-29T05:06:25.513Z,96976.00
2022-09-29T05:08:53.581Z,97051.00
2022-09-29T05:11:21.663Z,97046.00
2022-09-29T05:13:49.988Z,97027.00
2022-09-29T05:16:18.182Z,97042.00
2022-09-29T05:18:46.255Z,97029.00
2022-09-29T05:24:54.765Z,96977.00
2022-09-29T05:30:12.880Z,96982.00
2022-09-29T05:32:40.898Z,97055.00
2022-09-29T05:35:10.080Z,96987.00
2022-09-29T05:37:38.157Z,97007.00
2022-09-29T05:40:10.242Z,97049.00
2022-09-29T05:42:38.327Z,97023.00
2022-09-29T05:45:09.076Z,97063.00
2022-09-29T05:47:37.166Z,97049.00
2022-09-29T05:50:05.837Z,97046.00
2022-09-29T05:52:34.500Z,97062.00
2022-09-29T05:55:02.813Z,97056.00
2022-09-29T05:57:32.393Z,97034.00
2022-09-29T06:00:00.508Z,96987.00
2022-09-29T06:02:34.472Z,97060.00
2022-09-29T06:05:02.677Z,96999.00
2022-09-29T06:07:31.027Z,97022.00
2022-09-29T06:09:59.183Z,97049.00
2022-09-29T06:12:27.251Z,97080.00
2022-09-29T06:14:56.659Z,97002.00
2022-09-29T06:17:24.755Z,97042.00
2022-09-29T06:19:53.423Z,97035.00
2022-09-29T06:22:21.523Z,96993.00
2022-09-29T06:24:49.624Z,97079.00
2022-09-29T06:27:17.832Z,97054.00
2022-09-29T06:29:45.827Z,97051.00
2022-09-29T06:32:15.535Z,96997.00
2022-09-29T06:34:58.770Z,97074.00
2022-09-29T06:37:39.692Z,97074.00
2022-09-29T06:40:11.263Z,97022.00
2022-09-29T06:42:39.698Z,97040.00
2022-09-29T06:45:09.183Z,97006.00
2022-09-29T06:47:38.585Z,97102.00
2022-09-29T06:50:07.815Z,97034.00
2022-09-29T06:52:35.823Z,97060.00
2022-09-29T06:55:03.888Z,97095.00
2022-09-29T06:57:32.045Z,97029.00
2022-09-29T07:00:00.352Z,97014.00
2022-09-29T07:02:29.033Z,97067.00
2022-09-29T07:04:58.550Z,97025.00
2022-09-29T07:07:26.729Z,97092.00
2022-09-29T07:09:54.853Z,97107.00
2022-09-29T07:12:23.346Z,97069.00
2022-09-29T07:14:51.402Z,97111.00
2022-09-29T07:17:19.895Z,97057.00
2022-09-29T07:19:47.971Z,97105.00
2022-09-29T07:22:17.477Z,97102.00
2022-09-29T07:24:46.742Z,97091.00
2022-09-29T07:27:14.745Z,97112.00
2022-09-29T07:29:44.154Z,97067.00
2022-09-29T07:32:32.644Z,97093.00
2022-09-29T07:35:00.882Z,97090.00
2022-09-29T07:37:30.547Z,97081.00
2022-09-29T07:39:58.599Z,97066.00
2022-09-29T07:42:26.613Z,97065.00
2022-09-29T07:44:54.813Z,97080.00
2022-09-29T07:47:23.030Z,97104.00
2022-09-29T07:49:51.083Z,97121.00
2022-09-29T07:52:19.089Z,97120.00
2022-09-29T07:54:48.550Z,97104.00
2022-09-29T07:57:16.588Z,97106.00
2022-09-29T07:59:51.014Z,97071.00
2022-09-29T08:02:21.320Z,97120.00
2022-09-29T08:04:49.328Z,97075.00
2022-09-29T08:07:17.443Z,97152.00
2022-09-29T08:09:45.517Z,97121.00
2022-09-29T08:12:15.152Z,97148.00
2022-09-29T08:14:44.419Z,97148.00
2022-09-29T08:17:12.529Z,97140.00
2022-09-29T08:19:40.731Z,97132.00
2022-09-29T08:22:09.018Z,97151.00
2022-09-29T08:24:37.114Z,97118.00
2022-09-29T08:27:16.326Z,97108.00
2022-09-29T08:29:48.346Z,97153.00
2022-09-29T08:32:17.341Z,97108.00
2022-09-29T08:34:45.603Z,97115.00
2022-09-29T08:37:13.761Z,97074.00
2022-09-29T08:39:41.776Z,97149.00
2022-09-29T08:42:14.814Z,97092.00
2022-09-29T08:44:45.487Z,97100.00
2022-09-29T08:47:19.276Z,97110.00
2022-09-29T08:49:48.831Z,97095.00
2022-09-29T08:52:19.735Z,97117.00
2022-09-29T08:54:49.624Z,97079.00
2022-09-29T08:57:19.172Z,97119.00
2022-09-29T08:59:48.595Z,97150.00
2022-09-29T09:02:53.236Z,97146.00
2022-09-29T09:05:29.666Z,97114.00
2022-09-29T09:08:02.049Z,97168.00
2022-09-29T09:10:38.071Z,97151.00
2022-09-29T09:13:19.108Z,97148.00
2022-09-29T09:15:54.260Z,97111.00
2022-09-29T09:18:38.060Z,97128.00
2022-09-29T09:21:08.432Z,97125.00
2022-09-29T09:23:44.049Z,97167.00
2022-09-29T09:26:12.188Z,97152.00
2022-09-29T09:28:42.622Z,97127.00
2022-09-29T09:31:11.945Z,97169.00
2022-09-29T09:33:44.218Z,97100.00
2022-09-29T09:36:19.812Z,97107.00
2022-09-29T09:38:55.228Z,97126.00
2022-09-29T09:41:24.080Z,97088.00
2022-09-29T09:43:53.878Z,97099.00
2022-09-29T09:46:23.364Z,97148.00
2022-09-29T09:48:58.759Z,97128.00
2022-09-29T09:54:13.382Z,97150.00
2022-09-29T09:56:55.062Z,97132.00
2022-09-29T09:59:30.944Z,97114.00
2022-09-29T10:01:59.410Z,97139.00
2022-09-29T10:04:28.959Z,97086.00
2022-09-29T10:06:57.223Z,97162.00
2022-09-29T10:09:25.770Z,97099.00
2022-09-29T10:11:53.920Z,97142.00
2022-09-29T10:14:23.666Z,97140.00
2022-09-29T10:16:53.013Z,97129.00
2022-09-29T10:19:22.964Z,97134.00
2022-09-29T10:21:52.395Z,97129.00
2022-09-29T10:24:24.924Z,97135.00
2022-09-29T10:26:55.278Z,97119.00
2022-09-29T10:29:26.364Z,97100.00
2022-09-29T10:32:05.852Z,97132.00
2022-09-29T10:34:34.680Z,97151.00
2022-09-29T10:37:05.224Z,97114.00
2022-09-29T10:39:35.165Z,97082.00
2022-09-29T10:42:05.240Z,97150.00
2022-09-29T10:44:34.003Z,97106.00
2022-09-29T10:47:02.047Z,97159.00
2022-09-29T10:49:30.997Z,97099.00
2022-09-29T10:52:01.887Z,97143.00
2022-09-29T10:54:33.426Z,97141.00
2022-09-29T10:57:01.421Z,97154.00
2022-09-29T10:59:29.700Z,97152.00
2022-09-29T11:01:59.010Z,97175.00
2022-09-29T11:04:28.624Z,97142.00
2022-09-29T11:06:57.559Z,97154.00
2022-09-29T11:09:36.549Z,97152.00
2022-09-29T11:12:09.251Z,97127.00
2022-09-29T11:14:42.109Z,97122.00
2022-09-29T11:17:22.149Z,97116.00
2022-09-29T11:19:50.522Z,97088.00
2022-09-29T11:22:49.352Z,97156.00
2022-09-29T11:25:38.468Z,97172.00
2022-09-29T11:28:20.164Z,97158.00
2022-09-29T11:30:53.896Z,97184.00
2022-09-29T11:33:27.287Z,97157.00
2022-09-29T11:35:57.776Z,97168.00
2022-09-29T11:38:36.418Z,97149.00
2022-09-29T11:41:13.233Z,97101.00
2022-09-29T11:43:46.064Z,97164.00
2022-09-29T11:46:23.947Z,97138.00
2022-09-29T11:49:05.084Z,97129.00
2022-09-29T11:51:39.494Z,97132.00
2022-09-29T11:54:29.244Z,97144.00
2022-09-29T11:57:00.402Z,97142.00
2022-09-29T11:59:39.241Z,97170.00
2022-09-29T12:02:29.626Z,97161.00
2022-09-29T12:04:59.657Z,97170.00
2022-09-29T12:07:34.072Z,97120.00
2022-09-29T12:10:25.763Z,97111.00
2022-09-29T12:12:58.634Z,97157.00
2022-09-29T12:15:34.161Z,97148.00
2022-09-29T12:18:06.132Z,97162.00
2022-09-29T12:20:36.366Z,97182.00
2022-09-29T12:23:06.234Z,97173.00
2022-09-29T12:25:35.647Z,97168.00
2022-09-29T12:28:08.317Z,97113.00
2022-09-29T12:30:40.831Z,97100.00
2022-09-29T12:33:14.929Z,97146.00
2022-09-29T12:35:44.714Z,97145.00
2022-09-29T12:38:16.888Z,97158.00
2022-09-29T12:40:45.807Z,97125.00
2022-09-29T12:43:16.856Z,97156.00
2022-09-29T12:45:49.566Z,97195.00
2022-09-29T12:48:26.734Z,97157.00
2022-09-29T12:50:59.681Z,97194.00
2022-09-29T12:53:30.966Z,97133.00
2022-09-29T12:55:59.917Z,97112.00
2022-09-29T12:58:34.594Z,97151.00
2022-09-29T13:01:05.242Z,97204.00
2022-09-29T13:03:41.375Z,97150.00
2022-09-29T13:06:57.774Z,97157.00
2022-09-29T13:10:04.238Z,97157.00
2022-09-29T13:12:43.805Z,97162.00
2022-09-29T13:15:21.805Z,97164.00
2022-09-29T13:17:57.435Z,97141.00
2022-09-29T13:20:44.594Z,97160.00
2022-09-29T13:23:34.243Z,97169.00
2022-09-29T13:26:21.973Z,97158.00
2022-09-29T13:28:50.910Z,97187.00
2022-09-29T13:31:22.684Z,97238.00
2022-09-29T13:33:52.715Z,97153.00
2022-09-29T13:36:25.328Z,97202.00
2022-09-29T13:38:55.394Z,97162.00
2022-09-29T13:41:38.116Z,97179.00
2022-09-29T13:44:08.070Z,97179.00
2022-09-29T13:46:39.996Z,97194.00
2022-09-29T13:49:16.091Z,97182.00
2022-09-29T13:51:49.704Z,97184.00
2022-09-29T13:54:34.355Z,97125.00
2022-09-29T13:57:29.520Z,97180.00
2022-09-29T14:00:19.618Z,97155.00
2022-09-29T14:03:05.491Z,97187.00
2022-09-29T14:06:36.595Z,97183.00
2022-09-29T14:09:05.596Z,97183.00
2022-09-29T14:11:35.194Z,97195.00
2022-09-29T14:14:04.687Z,97187.00
2022-09-29T14:16:45.226Z,97207.00
2022-09-29T14:19:22.863Z,97195.00
2022-09-29T14:21:53.481Z,97228.00
2022-09-29T14:24:47.268Z,97209.00
2022-09-29T14:27:28.249Z,97190.00
2022-09-29T14:30:01.786Z,97208.00
2022-09-29T14:32:37.271Z,97242.00
2022-09-29T14:35:07.916Z,97185.00
2022-09-29T14:37:36.439Z,97215.00
2022-09-29T14:40:22.096Z,97217.00
2022-09-29T14:42:51.056Z,97229.00
2022-09-29T14:45:36.669Z,97214.00
2022-09-29T14:48:22.963Z,97231.00
2022-09-29T14:51:11.393Z,97245.00
2022-09-29T14:53:52.052Z,97223.00
2022-09-29T14:56:35.416Z,97257.00
2022-09-29T14:59:17.678Z,97244.00
2022-09-29T15:02:06.781Z,97211.00
2022-09-29T15:04:39.158Z,97239.00
2022-09-29T15:07:12.342Z,97263.00
2022-09-29T15:09:40.412Z,97267.00
2022-09-29T15:12:15.148Z,97258.00
2022-09-29T15:14:43.199Z,97265.00
2022-09-29T15:17:18.762Z,97269.00
2022-09-29T15:19:55.539Z,97278.00
2022-09-29T15:23:03.104Z,97260.00
2022-09-29T15:25:31.455Z,97256.00
2022-09-29T15:28:01.385Z,97261.00
2022-09-29T15:30:30.052Z,97268.00
2022-09-29T15:33:08.913Z,97254.00
2022-09-29T15:35:39.900Z,97249.00
2022-09-29T15:38:21.774Z,97263.00
2022-09-29T15:40:54.016Z,97262.00
2022-09-29T15:43:23.052Z,97261.00
2022-09-29T15:45:56.417Z,97276.00
2022-09-29T15:48:25.764Z,97280.00
2022-09-29T15:50:55.819Z,97280.00
2022-09-29T15:53:25.773Z,97299.00
2022-09-29T15:55:53.755Z,97301.00
2022-09-29T15:58:42.071Z,97297.00
2022-09-29T16:01:10.197Z,97309.00
2022-09-29T16:03:40.842Z,97314.00
2022-09-29T16:06:18.689Z,97319.00
2022-09-29T16:08:49.334Z,97313.00
2022-09-29T16:11:22.899Z,97323.00
2022-09-29T16:13:55.053Z,97328.00
2022-09-29T16:16:31.449Z,97326.00
2022-09-29T16:19:04.589Z,97313.00
2022-09-29T16:21:36.807Z,97331.00
2022-09-29T16:24:09.655Z,97338.00
2022-09-29T16:26:38.409Z,97297.00
2022-09-29T16:29:20.840Z,97324.00
2022-09-29T16:31:49.476Z,97337.00
2022-09-29T16:34:28.563Z,97344.00
2022-09-29T16:36:56.960Z,97300.00
2022-09-29T16:39:27.203Z,97343.00
2022-09-29T16:41:55.936Z,97337.00
2022-09-29T16:44:29.081Z,97344.00
2022-09-29T16:46:58.955Z,97337.00
2022-09-29T16:49:28.245Z,97356.00
2022-09-29T16:51:57.649Z,97337.00
2022-09-29T16:54:28.548Z,97361.00
2022-09-29T16:57:25.432Z,97356.00
2022-09-29T16:59:54.680Z,97344.00
2022-09-29T17:02:23.681Z,97364.00
2022-09-29T17:04:51.889Z,97349.00
2022-09-29T17:07:20.568Z,97373.00
2022-09-29T17:09:51.561Z,97367.00
2022-09-29T17:12:19.592Z,97369.00
2022-09-29T17:14:48.585Z,97370.00
2022-09-29T17:17:18.370Z,97357.00
2022-09-29T17:19:46.486Z,97387.00
2022-09-29T17:22:39.668Z,97362.00
2022-09-29T17:25:15.396Z,97345.00
2022-09-29T17:28:00.984Z,97388.00
2022-09-29T17:30:29.132Z,97385.00
2022-09-29T17:32:58.141Z,97372.00
2022-09-29T17:35:29.599Z,97361.00
2022-09-29T17:37:57.826Z,97399.00
2022-09-29T17:40:30.654Z,97378.00
2022-09-29T17:43:00.566Z,97394.00
2022-09-29T17:45:29.926Z,97406.00
2022-09-29T17:47:59.655Z,97407.00
2022-09-29T17:50:30.271Z,97357.00
2022-09-29T17:52:58.825Z,97399.00
2022-09-29T17:55:28.475Z,97389.00
2022-09-29T17:57:57.639Z,97354.00
2022-09-29T18:00:26.608Z,97386.00
2022-09-29T18:03:01.644Z,97404.00
2022-09-29T18:05:32.459Z,97383.00
2022-09-29T18:08:01.843Z,97396.00
2022-09-29T18:10:32.164Z,97385.00
2022-09-29T18:13:00.246Z,97438.00
2022-09-29T18:15:28.753Z,97387.00
2022-09-29T18:17:57.318Z,97405.00
2022-09-29T18:20:25.507Z,97414.00
2022-09-29T18:22:53.509Z,97406.00
2022-09-29T18:25:21.982Z,97354.00
2022-09-29T18:27:51.483Z,97428.00
2022-09-29T18:30:20.559Z,97338.00
2022-09-29T18:32:49.232Z,97363.00
2022-09-29T18:35:18.120Z,97422.00
2022-09-29T18:37:46.212Z,97403.00
2022-09-29T18:40:14.473Z,97411.00
2022-09-29T18:42:43.126Z,97396.00
2022-09-29T18:45:14.044Z,97364.00
2022-09-29T18:47:43.033Z,97377.00
2022-09-29T18:50:19.418Z,97417.00
2022-09-29T18:52:48.773Z,97397.00
2022-09-29T18:55:17.833Z,97384.00
2022-09-29T18:57:45.858Z,97419.00
2022-09-29T19:00:16.254Z,97412.00
2022-09-29T19:02:44.555Z,97425.00
2022-09-29T19:05:13.309Z,97452.00
2022-09-29T19:07:41.391Z,97374.00
2022-09-29T19:10:10.491Z,97368.00
2022-09-29T19:12:38.611Z,97489.00
2022-09-29T19:15:07.549Z,97449.00
2022-09-29T19:17:37.119Z,97421.00
2022-09-29T19:20:06.379Z,97383.00
2022-09-29T19:22:38.327Z,97430.00
2022-09-29T19:25:07.621Z,97419.00
2022-09-29T19:27:35.708Z,97476.00
2022-09-29T19:30:04.074Z,97488.00
2022-09-29T19:32:32.105Z,97439.00
2022-09-29T19:35:01.567Z,97470.00
2022-09-29T19:37:29.840Z,97494.00
2022-09-29T19:39:58.117Z,97412.00
2022-09-29T19:42:26.247Z,97417.00
2022-09-29T19:44:55.063Z,97423.00
2022-09-29T19:47:23.219Z,97439.00
2022-09-29T19:50:11.331Z,97451.00
2022-09-29T19:52:39.715Z,97490.00
2022-09-29T19:55:11.419Z,97495.00
2022-09-29T19:57:41.171Z,97500.00
2022-09-29T20:00:12.662Z,97503.00
2022-09-29T20:02:41.760Z,97480.00
2022-09-29T20:05:11.336Z,97510.00
2022-09-29T20:07:43.363Z,97529.00
2022-09-29T20:10:13.477Z,97473.00
2022-09-29T20:12:42.913Z,97495.00
2022-09-29T20:15:13.900Z,97494.00
2022-09-29T20:17:45.812Z,97442.00
2022-09-29T20:20:13.955Z,97518.00
2022-09-29T20:22:43.383Z,97467.00
2022-09-29T20:25:12.586Z,97444.00
2022-09-29T20:27:40.860Z,97455.00
2022-09-29T20:30:10.212Z,97569.00
2022-09-29T20:32:38.287Z,97521.00
2022-09-29T20:35:06.999Z,97512.00
2022-09-29T20:37:35.240Z,97517.00
2022-09-29T20:40:05.452Z,97530.00
2022-09-29T20:42:38.352Z,97531.00
2022-09-29T20:45:07.888Z,97539.00
2022-09-29T20:47:37.075Z,97522.00
2022-09-29T20:50:05.415Z,97531.00
2022-09-29T20:52:33.425Z,97536.00
2022-09-29T20:55:02.541Z,97554.00
2022-09-29T20:57:32.719Z,97486.00
2022-09-29T21:00:00.930Z,97549.00
2022-09-29T21:02:29.820Z,97554.00
2022-09-29T21:04:57.941Z,97497.00
2022-09-29T21:07:38.448Z,97533.00
2022-09-29T21:10:07.591Z,97553.00
2022-09-29T21:12:36.981Z,97550.00
2022-09-29T21:15:05.463Z,97523.00
2022-09-29T21:17:33.455Z,97563.00
2022-09-29T21:20:01.534Z,97526.00
2022-09-29T21:22:29.696Z,97501.00
2022-09-29T21:24:57.809Z,97577.00
2022-09-29T21:27:25.933Z,97516.00
2022-09-29T21:29:55.340Z,97562.00
2022-09-29T21:32:23.458Z,97556.00
2022-09-29T21:34:51.743Z,97554.00
2022-09-29T21:37:19.799Z,97533.00
2022-09-29T21:39:47.830Z,97536.00
2022-09-29T21:42:16.164Z,97631.00
2022-09-29T21:44:45.231Z,97599.00
2022-09-29T21:47:14.689Z,97601.00
2022-09-29T21:49:42.885Z,97587.00
2022-09-29T21:52:10.917Z,97584.00
2022-09-29T21:54:38.934Z,97580.00
2022-09-29T21:57:07.152Z,97594.00
2022-09-29T21:59:35.196Z,97602.00
2022-09-29T22:02:03.307Z,97594.00
2022-09-29T22:04:32.753Z,97605.00
2022-09-29T22:07:01.415Z,97590.00
2022-09-29T22:09:29.513Z,97591.00
2022-09-29T22:11:57.549Z,97580.00
2022-09-29T22:14:26.530Z,97575.00
2022-09-29T22:16:54.517Z,97604.00
2022-09-29T22:19:24.123Z,97602.00
2022-09-29T22:21:54.238Z,97607.00
2022-09-29T22:24:23.839Z,97570.00
2022-09-29T22:26:52.174Z,97619.00
2022-09-29T22:29:20.303Z,97620.00
2022-09-29T22:31:48.571Z,97612.00
2022-09-29T22:34:16.969Z,97631.00
2022-09-29T22:36:44.946Z,97584.00
2022-09-29T22:39:14.427Z,97575.00
2022-09-29T22:41:43.583Z,97641.00
2022-09-29T22:44:12.353Z,97632.00
2022-09-29T22:46:40.361Z,97637.00
2022-09-29T22:49:08.436Z,97642.00
2022-09-29T22:51:36.459Z,97663.00
2022-09-29T22:54:04.471Z,97656.00
2022-09-29T22:56:34.038Z,97654.00
2022-09-29T22:59:02.773Z,97640.00
2022-09-29T23:01:30.958Z,97615.00
2022-09-29T23:03:59.065Z,97622.00
2022-09-29T23:06:27.285Z,97651.00
2022-09-29T23:08:55.950Z,97585.00
2022-09-29T23:11:24.072Z,97602.00
2022-09-29T23:13:53.919Z,97591.00
2022-09-29T23:16:22.076Z,97618.00
2022-09-29T23:18:53.999Z,97658.00
2022-09-29T23:21:22.264Z,97601.00
2022-09-29T23:23:53.315Z,97676.00
2022-09-29T23:26:21.372Z,97661.00
2022-09-29T23:28:49.597Z,97669.00
2022-09-29T23:31:19.222Z,97680.00
2022-09-29T23:33:52.094Z,97657.00
2022-09-29T23:36:20.134Z,97626.00
2022-09-29T23:39:05.386Z,97588.00
2022-09-29T23:41:33.409Z,97647.00
2022-09-29T23:44:03.277Z,97674.00
2022-09-29T23:46:33.651Z,97591.00
2022-09-29T23:49:02.049Z,97677.00
2022-09-29T23:51:32.044Z,97584.00
2022-09-29T23:54:00.118Z,97642.00
2022-09-29T23:56:28.179Z,97662.00
2022-09-29T23:58:56.372Z,97676.00
